Terminal Aerodrome Forecast
Issued by NWS Houston/Galveston TX

Home | Current Version | Previous Version | Text Only | Print | Product List | Glossary On
Versions: 1 2 3 4 5 6 7 8 9 10 11 12 13 14 15 16 17 18 19 20 21 22 23 24 25 26 27 28 29
000
FTUS44 KHGX 310901 AAA
TAFHOU
TAF AMD
KHOU 310901Z 3109/0106 00000KT P6SM BKN100
     FM311300 35005KT P6SM FEW080 SCT250
     FM311600 36014G21KT P6SM SKC
     FM010300 01010KT P6SM SKC=

USA.gov is the U.S. government's official web portal to all federal, state and local government web resources and services.